createdAt,value
2022-08-01T03:19:13.098Z,83.56
2022-08-01T03:22:26.336Z,83.44
2022-08-01T03:25:40.141Z,84.35
2022-08-01T03:28:52.539Z,85.58
2022-08-01T03:32:04.174Z,86.13
2022-08-01T03:35:15.937Z,86.77
2022-08-01T03:38:29.091Z,87.07
2022-08-01T03:41:43.052Z,86.95
2022-08-01T03:44:57.979Z,86.83
2022-08-01T03:48:12.379Z,86.67
2022-08-01T03:51:25.446Z,86.72
2022-08-01T03:54:39.531Z,86.43
2022-08-01T03:57:50.611Z,87.39
2022-08-01T04:01:01.205Z,87.85
2022-08-01T04:04:11.799Z,89.21
2022-08-01T04:07:29.200Z,89.21
2022-08-01T04:10:39.811Z,90.06
2022-08-01T04:13:49.961Z,90.31
2022-08-01T04:17:01.177Z,91.43
2022-08-01T04:20:13.109Z,91.94
2022-08-01T04:23:27.965Z,92.41
2022-08-01T04:26:40.468Z,92.69
2022-08-01T04:29:53.683Z,92.06
2022-08-01T04:33:07.255Z,92.56
2022-08-01T04:36:21.948Z,93.72
2022-08-01T04:39:50.747Z,93.26
2022-08-01T04:43:02.200Z,92.58
2022-08-01T04:46:13.539Z,92.48
2022-08-01T04:49:24.122Z,92.00
2022-08-01T04:52:36.418Z,92.49
2022-08-01T04:55:48.393Z,91.94
2022-08-01T04:59:09.496Z,92.27
2022-08-01T05:59:24.263Z,80.03
2022-08-01T06:02:34.778Z,78.96
2022-08-01T06:05:45.078Z,76.36
2022-08-01T06:08:55.572Z,76.87
2022-08-01T06:12:06.495Z,76.92
2022-08-01T06:15:18.204Z,75.94
2022-08-01T06:18:28.454Z,76.40
2022-08-01T06:21:38.773Z,75.78
2022-08-01T06:24:49.535Z,73.77
2022-08-01T06:27:59.624Z,74.68
2022-08-01T06:31:13.593Z,73.35
2022-08-01T06:34:23.970Z,74.48
2022-08-01T06:37:34.797Z,74.17
2022-08-01T06:40:44.903Z,73.45
2022-08-01T06:43:55.504Z,73.56
2022-08-01T06:47:06.951Z,73.61
2022-08-01T06:50:16.963Z,74.30
2022-08-01T06:53:27.004Z,71.68
2022-08-01T06:56:37.347Z,73.52
2022-08-01T06:59:54.301Z,73.73
2022-08-01T07:03:06.325Z,72.32
2022-08-01T07:06:16.695Z,72.46
2022-08-01T07:09:26.781Z,70.95
2022-08-01T07:12:38.914Z,70.82
2022-08-01T07:15:49.514Z,69.76
2022-08-01T07:19:01.065Z,70.36
2022-08-01T07:22:11.187Z,68.86
2022-08-01T07:25:21.360Z,69.71
2022-08-01T07:28:32.102Z,69.75
2022-08-01T07:31:42.518Z,68.76
2022-08-01T07:34:54.431Z,69.09
2022-08-01T07:38:04.751Z,68.34
2022-08-01T07:41:14.951Z,68.16
2022-08-01T07:44:25.147Z,67.34
2022-08-01T07:47:39.442Z,67.22
2022-08-01T07:50:50.983Z,67.45
2022-08-01T07:54:01.697Z,67.25
2022-08-01T07:57:12.371Z,67.96
2022-08-01T08:00:22.676Z,67.89
2022-08-01T08:03:32.975Z,66.04
2022-08-01T08:06:45.585Z,65.29
2022-08-01T08:09:55.966Z,64.08
2022-08-01T08:13:06.632Z,64.25
2022-08-01T08:16:16.728Z,63.93
2022-08-01T08:19:37.634Z,63.70
2022-08-01T08:22:51.268Z,61.44
2022-08-01T08:26:02.176Z,60.45
2022-08-01T08:29:12.696Z,60.41
2022-08-01T08:32:22.983Z,59.77
2022-08-01T08:35:53.321Z,61.25
2022-08-01T08:39:05.026Z,61.35
2022-08-01T08:42:15.364Z,60.33
2022-08-01T08:45:30.871Z,58.70
2022-08-01T08:48:58.177Z,57.28
2022-08-01T08:52:10.637Z,56.71
2022-08-01T08:55:24.034Z,54.83
2022-08-01T08:58:38.490Z,53.32
2022-08-01T09:03:04.402Z,52.25
2022-08-01T09:07:10.630Z,51.30
2022-08-01T09:10:23.871Z,50.90
2022-08-01T09:13:34.231Z,50.38
2022-08-01T09:16:48.848Z,50.35
2022-08-01T09:19:59.514Z,51.20
2022-08-01T09:23:33.431Z,51.36
2022-08-01T09:26:45.877Z,53.16
2022-08-01T09:30:01.267Z,54.85
2022-08-01T09:33:21.620Z,55.85
2022-08-01T09:36:49.467Z,55.52
2022-08-01T09:40:46.123Z,56.11
2022-08-01T09:43:58.482Z,56.75
2022-08-01T09:47:09.129Z,57.93
2022-08-01T09:50:20.577Z,59.76
2022-08-01T09:53:42.735Z,57.57
2022-08-01T09:57:12.925Z,54.36
2022-08-01T10:00:44.294Z,51.78
2022-08-01T10:04:15.255Z,50.61
2022-08-01T10:07:27.655Z,51.34
2022-08-01T10:11:10.241Z,52.12
2022-08-01T10:14:25.618Z,52.54
2022-08-01T10:17:50.947Z,53.43
2022-08-01T10:21:04.095Z,52.72
2022-08-01T10:24:22.079Z,51.30
2022-08-01T10:27:39.734Z,51.50
2022-08-01T10:30:51.005Z,48.29
2022-08-01T10:34:05.604Z,46.53
2022-08-01T10:37:18.211Z,46.15
2022-08-01T10:40:31.261Z,45.04
2022-08-01T10:43:42.270Z,44.63
2022-08-01T10:47:05.293Z,44.40
2022-08-01T10:50:29.780Z,44.30
2022-08-01T10:53:49.005Z,45.39
2022-08-01T10:57:02.638Z,44.29
2022-08-01T11:00:19.859Z,44.08
2022-08-01T11:03:56.035Z,44.29
2022-08-01T11:07:14.264Z,45.01
2022-08-01T11:10:30.670Z,44.88
2022-08-01T11:14:05.264Z,45.75
2022-08-01T11:17:38.039Z,45.26
2022-08-01T11:21:58.128Z,43.35
2022-08-01T11:28:34.621Z,44.62
2022-08-01T11:31:47.141Z,46.23
2022-08-01T11:34:59.181Z,45.31
2022-08-01T11:38:25.291Z,45.60
2022-08-01T11:41:39.310Z,46.14
2022-08-01T11:44:54.224Z,45.86
2022-08-01T11:48:20.223Z,46.26
2022-08-01T11:51:30.967Z,46.94
2022-08-01T11:54:47.890Z,47.82
2022-08-01T11:58:03.043Z,49.24
2022-08-01T12:01:16.722Z,49.28
2022-08-01T12:04:27.401Z,49.22
2022-08-01T12:07:39.292Z,47.96
2022-08-01T12:10:52.753Z,46.89
2022-08-01T12:14:18.846Z,45.89
2022-08-01T12:17:36.408Z,46.65
2022-08-01T12:20:56.560Z,46.62
2022-08-01T12:24:08.174Z,46.71
2022-08-01T12:27:28.000Z,47.41
2022-08-01T12:30:40.140Z,48.26
2022-08-01T12:33:52.112Z,49.02
2022-08-01T12:37:04.483Z,48.92
2022-08-01T12:40:17.675Z,48.07
2022-08-01T12:43:29.715Z,46.84
2022-08-01T12:46:44.405Z,47.00
2022-08-01T12:49:56.843Z,47.04
2022-08-01T12:53:08.325Z,48.03
2022-08-01T12:56:18.981Z,47.97
2022-08-01T12:59:30.515Z,48.82
2022-08-01T13:02:42.482Z,47.90
2022-08-01T13:05:56.507Z,47.09
2022-08-01T13:09:08.246Z,47.01
2022-08-01T13:12:19.590Z,47.30
2022-08-01T13:15:33.384Z,47.92
2022-08-01T13:18:51.571Z,47.33
2022-08-01T13:22:03.833Z,47.98
2022-08-01T13:25:18.619Z,48.17
2022-08-01T13:28:32.444Z,45.99
2022-08-01T13:31:43.707Z,46.52
2022-08-01T13:35:03.198Z,46.07
2022-08-01T13:38:15.193Z,45.28
2022-08-01T13:41:25.892Z,44.91
2022-08-01T13:44:36.617Z,44.65
2022-08-01T13:48:11.419Z,45.48
2022-08-01T13:51:22.317Z,45.63
2022-08-01T13:54:35.399Z,46.03
2022-08-01T13:57:46.437Z,46.51
2022-08-01T14:00:57.827Z,47.19
2022-08-01T14:04:08.779Z,46.82
2022-08-01T14:07:19.720Z,46.17
2022-08-01T14:10:32.461Z,46.87
2022-08-01T14:13:45.128Z,46.63
2022-08-01T14:16:57.646Z,45.39
2022-08-01T14:20:08.674Z,46.66
2022-08-01T14:23:19.533Z,46.36
2022-08-01T14:26:31.523Z,46.02
2022-08-01T14:29:59.904Z,45.70
2022-08-01T14:33:14.127Z,47.32
2022-08-01T14:36:30.296Z,45.77
2022-08-01T14:39:42.361Z,46.95
2022-08-01T14:43:05.692Z,46.85
2022-08-01T14:46:35.961Z,46.71
2022-08-01T14:49:47.204Z,46.91
2022-08-01T14:52:57.886Z,46.53
2022-08-01T14:56:09.303Z,46.67
2022-08-01T14:59:22.122Z,47.10
2022-08-01T15:02:32.782Z,47.96
2022-08-01T15:05:43.822Z,47.55
2022-08-01T15:08:54.504Z,46.94
2022-08-01T15:12:05.814Z,46.35
2022-08-01T15:15:17.836Z,46.62
2022-08-01T15:18:28.614Z,47.15
2022-08-01T15:21:42.008Z,46.14
2022-08-01T15:24:57.262Z,45.87
2022-08-01T15:28:09.525Z,46.43
2022-08-01T15:31:21.563Z,47.10
2022-08-01T15:34:32.773Z,48.09
2022-08-01T15:37:44.050Z,47.96
2022-08-01T15:40:54.702Z,47.89
2022-08-01T15:44:05.573Z,49.76
2022-08-01T15:47:17.845Z,49.31
2022-08-01T15:50:28.546Z,49.55
2022-08-01T15:53:39.206Z,49.85
2022-08-01T15:56:49.954Z,50.63
2022-08-01T16:00:00.673Z,50.80
2022-08-01T16:03:12.937Z,51.12
2022-08-01T16:06:23.595Z,51.68
2022-08-01T16:09:34.312Z,52.82
2022-08-01T16:12:45.203Z,52.73
2022-08-01T16:15:55.966Z,53.42
2022-08-01T16:19:08.094Z,53.04
2022-08-01T16:22:18.904Z,54.04
2022-08-01T16:25:29.776Z,52.87
2022-08-01T16:28:41.236Z,53.18
2022-08-01T16:32:06.610Z,53.92
2022-08-01T16:35:24.481Z,53.92
2022-08-01T16:38:40.026Z,54.86
2022-08-01T16:41:55.381Z,54.75
2022-08-01T16:45:12.703Z,55.27
2022-08-01T16:48:26.983Z,55.76
2022-08-01T16:51:48.243Z,56.09
2022-08-01T16:54:59.192Z,56.70
2022-08-01T16:58:11.993Z,57.15
2022-08-01T17:01:58.572Z,57.69
2022-08-01T17:04:55.428Z,58.09
2022-08-01T17:08:09.514Z,57.67
2022-08-01T17:11:20.510Z,58.89
2022-08-01T17:14:33.610Z,59.02
2022-08-01T17:17:44.577Z,59.27
2022-08-01T17:20:55.217Z,59.51
2022-08-01T17:24:07.858Z,60.47
2022-08-01T17:27:18.856Z,61.28
2022-08-01T17:30:29.635Z,61.82
2022-08-01T17:33:45.562Z,62.48
2022-08-01T17:36:57.482Z,62.28
2022-08-01T17:40:38.546Z,62.78
2022-08-01T17:43:41.317Z,62.01
2022-08-01T17:46:52.226Z,62.37
2022-08-01T17:50:04.361Z,61.89
2022-08-01T17:53:16.013Z,61.51
2022-08-01T17:56:38.101Z,60.36
2022-08-01T17:59:50.628Z,60.10
2022-08-01T18:03:01.811Z,60.10
2022-08-01T18:06:15.566Z,60.79
2022-08-01T18:09:26.732Z,62.14
2022-08-01T18:12:38.915Z,61.95
2022-08-01T18:15:50.609Z,62.58
2022-08-01T18:19:01.335Z,62.78
2022-08-01T18:22:31.320Z,63.25
2022-08-01T18:25:43.315Z,62.70
2022-08-01T18:28:55.550Z,63.45
2022-08-01T18:32:09.056Z,63.82
2022-08-01T18:35:19.942Z,62.83
2022-08-01T18:38:33.191Z,62.46
2022-08-01T18:41:43.970Z,62.83
2022-08-01T18:44:55.962Z,63.24
2022-08-01T18:48:06.984Z,63.66
2022-08-01T18:51:17.516Z,63.91
2022-08-01T18:54:28.488Z,64.51
2022-08-01T18:57:42.627Z,64.38
2022-08-01T19:00:55.095Z,69.84
2022-08-01T19:04:06.255Z,70.17
2022-08-01T19:07:33.493Z,68.39
2022-08-01T19:10:48.027Z,67.15
2022-08-01T19:13:58.883Z,66.56
2022-08-01T19:17:10.960Z,66.54
2022-08-01T19:20:21.946Z,68.08
2022-08-01T19:23:43.396Z,75.12
2022-08-01T19:26:56.941Z,77.46
2022-08-01T19:30:08.657Z,79.82
2022-08-01T19:33:21.016Z,80.43
2022-08-01T19:36:32.452Z,81.94
2022-08-01T19:39:46.222Z,81.39
2022-08-01T19:42:57.999Z,82.17
2022-08-01T19:46:17.672Z,79.08
2022-08-01T19:49:30.341Z,79.18
2022-08-01T19:52:41.717Z,80.95
2022-08-01T19:55:54.148Z,82.11
2022-08-01T19:59:08.150Z,82.80
2022-08-01T20:02:20.429Z,84.36
2022-08-01T20:05:32.779Z,85.59
2022-08-01T20:08:44.431Z,85.79
2022-08-01T20:11:55.929Z,86.15
2022-08-01T20:15:07.085Z,86.54
2022-08-01T20:18:17.808Z,86.49
2022-08-01T20:21:30.445Z,87.05
2022-08-01T20:24:43.884Z,88.38
2022-08-01T20:27:57.083Z,89.86
2022-08-01T20:31:10.722Z,89.14
2022-08-01T20:34:24.767Z,89.61
2022-08-01T20:38:01.251Z,88.84
2022-08-01T20:41:12.363Z,89.32
2022-08-01T20:44:24.026Z,89.93
2022-08-01T20:47:34.477Z,90.45
2022-08-01T20:50:57.031Z,91.45
2022-08-01T20:54:09.170Z,88.79
2022-08-01T20:57:25.666Z,87.79
2022-08-01T21:00:38.461Z,89.88
2022-08-01T21:04:06.157Z,91.75
2022-08-01T21:07:24.823Z,92.81
2022-08-01T21:10:38.235Z,92.34
2022-08-01T21:13:50.739Z,93.39
2022-08-01T21:17:06.264Z,92.93
2022-08-01T21:20:20.608Z,93.26
2022-08-01T21:23:34.446Z,93.95
2022-08-01T21:26:53.305Z,94.56
2022-08-01T21:30:08.902Z,94.06
2022-08-01T21:33:19.849Z,94.59
2022-08-01T21:36:33.052Z,94.22
2022-08-01T21:39:48.396Z,94.61
2022-08-01T21:43:01.944Z,94.89
2022-08-01T21:46:17.158Z,94.40
2022-08-01T21:49:28.164Z,94.85
2022-08-01T21:52:45.140Z,95.68
2022-08-01T21:56:03.078Z,95.97
2022-08-01T21:59:44.791Z,96.39
2022-08-01T22:03:05.557Z,96.97
2022-08-01T22:06:19.135Z,97.12
2022-08-01T22:09:33.355Z,96.66
2022-08-01T22:12:44.602Z,95.44
2022-08-01T22:16:00.064Z,96.01
2022-08-01T22:19:32.370Z,96.11
2022-08-01T22:22:52.003Z,96.19
2022-08-01T22:26:10.519Z,96.10
2022-08-01T22:29:21.307Z,95.53
2022-08-01T22:32:34.437Z,95.16
2022-08-01T22:35:53.166Z,95.66
2022-08-01T22:39:05.291Z,96.42
2022-08-01T22:42:16.461Z,97.46
